createdAt,value
2022-11-14T00:00:50.512Z,100524.59
2022-11-14T00:03:36.203Z,100527.69
2022-11-14T00:06:21.931Z,100522.47
2022-11-14T00:09:07.691Z,100531.06
2022-11-14T00:11:53.489Z,100522.06
2022-11-14T00:14:39.237Z,100523.28
2022-11-14T00:17:25.033Z,100519.00
2022-11-14T00:20:12.260Z,100518.53
2022-11-14T00:22:58.039Z,100515.78
2022-11-14T00:25:45.182Z,100523.63
2022-11-14T00:28:33.312Z,100523.16
2022-11-14T00:31:19.357Z,100519.47
2022-11-14T00:34:05.399Z,100531.97
2022-11-14T00:36:51.053Z,100526.22
2022-11-14T00:39:36.351Z,100529.88
2022-11-14T00:42:22.263Z,100531.81
2022-11-14T00:45:08.015Z,100528.03
2022-11-14T00:47:53.896Z,100530.75
2022-11-14T00:50:39.889Z,100517.63
2022-11-14T00:53:25.783Z,100511.66
2022-11-14T00:56:11.571Z,100516.22
2022-11-14T00:58:57.460Z,100521.53
2022-11-14T01:01:45.298Z,100524.00
2022-11-14T01:04:31.548Z,100532.53
2022-11-14T01:07:19.264Z,100526.38
2022-11-14T01:10:06.038Z,100515.41
2022-11-14T01:12:51.348Z,100527.16
2022-11-14T01:15:48.452Z,100519.22
2022-11-14T01:18:34.255Z,100503.34
2022-11-14T01:21:19.931Z,100508.75
2022-11-14T01:24:06.140Z,100500.53
2022-11-14T01:26:51.733Z,100493.50
2022-11-14T01:29:37.310Z,100497.78
2022-11-14T01:32:23.140Z,100489.09
2022-11-14T01:35:08.787Z,100479.44
2022-11-14T01:37:54.711Z,100483.94
2022-11-14T01:40:45.243Z,100476.44
2022-11-14T01:43:33.993Z,100486.78
2022-11-14T01:46:25.173Z,100476.69
2022-11-14T01:49:17.733Z,100473.75
2022-11-14T01:52:07.274Z,100475.56
2022-11-14T01:54:55.827Z,100475.50
2022-11-14T01:57:46.093Z,100479.28
2022-11-14T02:00:34.399Z,100477.41
2022-11-14T02:03:20.348Z,100477.81
2022-11-14T02:06:08.445Z,100478.13
2022-11-14T02:08:55.447Z,100475.38
2022-11-14T02:11:46.170Z,100475.56
2022-11-14T02:14:37.924Z,100474.00
2022-11-14T02:17:30.437Z,100463.00
2022-11-14T02:20:24.071Z,100465.56
2022-11-14T02:23:11.824Z,100464.13
2022-11-14T02:25:58.055Z,100470.41
2022-11-14T02:28:44.345Z,100472.66
2022-11-14T02:31:29.975Z,100467.75
2022-11-14T02:34:20.379Z,100472.78
2022-11-14T02:37:06.530Z,100475.72
2022-11-14T02:39:52.231Z,100472.97
2022-11-14T02:42:37.949Z,100470.88
2022-11-14T02:45:24.186Z,100480.25
2022-11-14T02:48:09.839Z,100469.72
2022-11-14T02:50:57.773Z,100478.94
2022-11-14T02:53:43.045Z,100465.38
2022-11-14T02:56:30.943Z,100461.56
2022-11-14T02:59:16.270Z,100457.13
2022-11-14T03:02:01.974Z,100459.28
2022-11-14T03:04:47.502Z,100469.13
2022-11-14T03:07:35.920Z,100452.03
2022-11-14T03:10:23.191Z,100467.19
2022-11-14T03:13:09.073Z,100459.91
2022-11-14T03:15:54.483Z,100459.31
2022-11-14T03:18:40.682Z,100459.31
2022-11-14T03:21:28.907Z,100458.56
2022-11-14T03:24:14.403Z,100457.09
2022-11-14T03:27:00.157Z,100454.47
2022-11-14T03:29:48.427Z,100442.31
2022-11-14T03:32:34.334Z,100449.81
2022-11-14T03:35:20.397Z,100446.03
2022-11-14T03:38:05.889Z,100449.41
2022-11-14T03:40:52.300Z,100444.69
2022-11-14T03:43:37.977Z,100450.66
2022-11-14T03:46:24.763Z,100449.22
2022-11-14T03:49:10.015Z,100450.41
2022-11-14T03:51:55.861Z,100446.47
2022-11-14T03:54:41.381Z,100449.38
2022-11-14T03:57:27.006Z,100447.41
2022-11-14T04:00:13.656Z,100443.88
2022-11-14T04:02:59.449Z,100436.59
2022-11-14T04:05:45.803Z,100432.91
2022-11-14T04:08:32.125Z,100434.09
2022-11-14T04:11:17.710Z,100425.84
2022-11-14T04:14:03.534Z,100427.97
2022-11-14T04:16:48.844Z,100420.66
2022-11-14T04:19:34.813Z,100430.72
2022-11-14T04:22:20.424Z,100420.19
2022-11-14T04:25:07.436Z,100429.50
2022-11-14T04:27:53.094Z,100426.25
2022-11-14T04:30:38.797Z,100420.28
2022-11-14T04:33:24.352Z,100420.59
2022-11-14T04:36:10.058Z,100417.19
2022-11-14T04:38:55.481Z,100414.13
2022-11-14T04:41:45.897Z,100405.41
2022-11-14T04:44:31.700Z,100405.22
2022-11-14T04:47:18.036Z,100400.97
2022-11-14T04:50:04.737Z,100393.50
2022-11-14T04:52:54.034Z,100399.00
2022-11-14T04:55:39.736Z,100398.81
2022-11-14T04:58:26.601Z,100396.34
2022-11-14T05:01:14.185Z,100392.66
2022-11-14T05:03:59.753Z,100388.28
2022-11-14T05:06:48.381Z,100382.97
2022-11-14T05:09:34.454Z,100377.00
2022-11-14T05:12:19.823Z,100378.53
2022-11-14T05:15:08.487Z,100388.75
2022-11-14T05:17:53.865Z,100383.25
2022-11-14T05:20:39.481Z,100377.28
2022-11-14T05:23:24.790Z,100376.81
2022-11-14T05:26:13.394Z,100372.06
2022-11-14T05:28:58.823Z,100370.66
2022-11-14T05:31:46.881Z,100364.69
2022-11-14T05:34:32.482Z,100361.75
2022-11-14T05:37:18.073Z,100369.81
2022-11-14T05:40:05.358Z,100372.13
2022-11-14T05:42:55.107Z,100364.16
2022-11-14T05:45:43.025Z,100374.28
2022-11-14T05:48:30.411Z,100368.31
2022-11-14T05:51:16.085Z,100386.41
2022-11-14T05:54:01.971Z,100379.97
2022-11-14T05:56:47.566Z,100378.75
2022-11-14T05:59:33.480Z,100382.03
2022-11-14T06:02:18.948Z,100382.59
2022-11-14T06:05:07.279Z,100388.22
2022-11-14T06:07:57.748Z,100378.25
2022-11-14T06:10:43.219Z,100380.03
2022-11-14T06:13:28.706Z,100382.50
2022-11-14T06:16:17.140Z,100382.50
2022-11-14T06:19:02.408Z,100386.31
2022-11-14T06:21:48.201Z,100386.38
2022-11-14T06:24:34.010Z,100388.19
2022-11-14T06:27:19.689Z,100388.94
2022-11-14T06:30:05.937Z,100393.69
2022-11-14T06:32:58.232Z,100391.47
2022-11-14T06:35:43.518Z,100395.78
2022-11-14T06:38:31.890Z,100400.03
2022-11-14T06:41:22.145Z,100397.06
2022-11-14T06:44:09.221Z,100397.28
2022-11-14T06:46:54.865Z,100395.66
2022-11-14T06:49:41.038Z,100397.84
2022-11-14T06:52:27.312Z,100394.88
2022-11-14T06:55:13.414Z,100398.03
2022-11-14T06:57:58.998Z,100407.13
2022-11-14T07:00:44.834Z,100403.34
2022-11-14T07:03:32.660Z,100402.09
2022-11-14T07:06:24.022Z,100406.38
2022-11-14T07:09:11.038Z,100396.41
2022-11-14T07:11:56.717Z,100404.47
2022-11-14T07:14:42.340Z,100411.78
2022-11-14T07:17:31.592Z,100413.28
2022-11-14T07:20:20.399Z,100412.81
2022-11-14T07:23:05.860Z,100404.63
2022-11-14T07:25:51.609Z,100403.66
2022-11-14T07:28:39.458Z,100407.75
2022-11-14T07:31:27.129Z,100399.72
2022-11-14T07:34:12.858Z,100407.78
2022-11-14T07:36:58.680Z,100397.53
2022-11-14T07:39:46.156Z,100402.09
2022-11-14T07:42:31.956Z,100397.50
2022-11-14T07:45:17.812Z,100408.81
2022-11-14T07:48:03.602Z,100408.03
2022-11-14T07:50:49.511Z,100402.59
2022-11-14T07:53:37.471Z,100396.69
2022-11-14T07:56:24.149Z,100396.25
2022-11-14T07:59:09.686Z,100410.84
2022-11-14T08:01:55.458Z,100401.56
2022-11-14T08:04:42.264Z,100399.28
2022-11-14T08:07:28.373Z,100398.31
2022-11-14T08:10:14.359Z,100396.25
2022-11-14T08:13:30.271Z,100401.78
2022-11-14T08:16:13.645Z,100392.81
2022-11-14T08:19:00.361Z,100394.88
2022-11-14T08:21:48.327Z,100389.56
2022-11-14T08:24:33.837Z,100387.28
2022-11-14T08:27:19.414Z,100396.66
2022-11-14T08:30:05.655Z,100392.31
2022-11-14T08:32:51.592Z,100381.84
2022-11-14T08:35:37.686Z,100377.56
2022-11-14T08:38:23.305Z,100383.41
2022-11-14T08:41:09.144Z,100376.50
2022-11-14T08:43:55.058Z,100374.03
2022-11-14T08:46:41.006Z,100379.13
2022-11-14T08:49:27.206Z,100370.34
2022-11-14T08:52:16.660Z,100373.44
2022-11-14T08:55:02.742Z,100364.88
2022-11-14T08:57:49.880Z,100360.22
2022-11-14T09:00:35.658Z,100360.66
2022-11-14T09:03:21.754Z,100358.41
2022-11-14T09:06:07.370Z,100362.88
2022-11-14T09:08:53.216Z,100358.41
2022-11-14T09:11:39.008Z,100351.75
2022-11-14T09:14:24.766Z,100360.84
2022-11-14T09:17:10.136Z,100360.59
2022-11-14T09:19:56.156Z,100348.53
2022-11-14T09:22:41.894Z,100344.31
2022-11-14T09:25:29.307Z,100342.91
2022-11-14T09:28:17.195Z,100341.69
2022-11-14T09:31:10.583Z,100346.22
2022-11-14T09:33:56.001Z,100328.59
2022-11-14T09:36:41.987Z,100327.56
2022-11-14T09:39:27.762Z,100321.22
2022-11-14T09:42:17.449Z,100321.22
2022-11-14T09:45:07.351Z,100327.94
2022-11-14T09:48:01.482Z,100322.19
2022-11-14T09:51:09.662Z,100311.88
2022-11-14T09:54:20.085Z,100308.63
2022-11-14T09:57:15.480Z,100312.06
2022-11-14T10:00:01.724Z,100303.00
2022-11-14T10:03:11.256Z,100285.59
2022-11-14T10:05:57.509Z,100293.16
2022-11-14T10:09:04.656Z,100284.50
2022-11-14T10:11:50.124Z,100294.28
2022-11-14T10:14:51.558Z,100292.72
2022-11-14T10:18:14.847Z,100289.44
2022-11-14T10:21:24.723Z,100285.75
2022-11-14T10:24:22.682Z,100282.03
2022-11-14T10:27:28.225Z,100275.03
2022-11-14T10:30:20.065Z,100276.78
2022-11-14T10:33:14.818Z,100259.19
2022-11-14T10:36:15.443Z,100275.34
2022-11-14T10:39:12.072Z,100253.38
2022-11-14T10:42:07.717Z,100260.41
2022-11-14T10:45:02.558Z,100253.00
2022-11-14T10:48:09.113Z,100253.97
2022-11-14T10:51:00.242Z,100250.56
2022-11-14T10:53:55.511Z,100254.34
2022-11-14T10:56:55.112Z,100236.47
2022-11-14T10:59:40.683Z,100240.22
2022-11-14T11:02:26.377Z,100232.44
2022-11-14T11:05:16.554Z,100233.44
2022-11-14T11:08:42.609Z,100238.72
2022-11-14T11:11:32.398Z,100227.41
2022-11-14T11:14:19.749Z,100230.94
2022-11-14T11:17:11.813Z,100223.09
2022-11-14T11:20:37.353Z,100221.09
2022-11-14T11:23:26.843Z,100213.25
2022-11-14T11:26:20.407Z,100203.47
2022-11-14T11:29:18.327Z,100210.78
2022-11-14T11:32:04.514Z,100212.53
2022-11-14T11:34:51.678Z,100197.44
2022-11-14T11:37:42.217Z,100195.97
2022-11-14T11:40:29.737Z,100193.44
2022-11-14T11:43:51.292Z,100186.63
2022-11-14T11:46:50.560Z,100192.66
2022-11-14T11:49:54.399Z,100193.16
2022-11-14T11:52:50.377Z,100186.84
2022-11-14T11:55:43.679Z,100182.03
2022-11-14T11:58:47.822Z,100169.00
2022-11-14T12:01:33.596Z,100173.28
2022-11-14T12:04:19.797Z,100164.91
2022-11-14T12:07:16.902Z,100174.94
2022-11-14T12:10:18.113Z,100165.63
2022-11-14T12:13:26.953Z,100165.63
2022-11-14T12:16:22.235Z,100165.88
2022-11-14T12:19:26.472Z,100164.66
2022-11-14T12:22:31.278Z,100161.88
2022-11-14T12:25:31.654Z,100166.94
2022-11-14T12:28:32.716Z,100160.34
2022-11-14T12:31:18.801Z,100149.75
2022-11-14T12:34:07.935Z,100159.84
2022-11-14T12:36:53.571Z,100163.66
2022-11-14T12:39:39.650Z,100144.72
2022-11-14T12:42:26.111Z,100161.88
2022-11-14T12:45:41.070Z,100143.50
2022-11-14T12:48:26.618Z,100145.25
2022-11-14T12:51:24.946Z,100147.31
2022-11-14T12:54:44.673Z,100141.56
2022-11-14T12:57:51.827Z,100136.78
2022-11-14T13:01:12.540Z,100139.78
2022-11-14T13:04:13.813Z,100136.28
2022-11-14T13:07:34.709Z,100141.53
2022-11-14T13:10:38.927Z,100138.00
2022-11-14T13:13:43.096Z,100138.53
2022-11-14T13:16:53.247Z,100137.47
2022-11-14T13:20:06.567Z,100127.41
2022-11-14T13:22:52.403Z,100132.19
2022-11-14T13:25:37.997Z,100132.19
2022-11-14T13:28:36.192Z,100128.41
2022-11-14T13:31:39.368Z,100126.91
2022-11-14T13:34:30.698Z,100128.19
2022-11-14T13:37:31.809Z,100127.44
2022-11-14T13:40:46.928Z,100132.25
2022-11-14T13:43:41.912Z,100126.75
2022-11-14T13:46:58.095Z,100119.75
2022-11-14T13:49:49.558Z,100127.09
2022-11-14T13:52:42.245Z,100124.84
2022-11-14T13:55:33.788Z,100124.59
2022-11-14T13:58:41.742Z,100121.88
2022-11-14T14:01:30.364Z,100123.88
2022-11-14T14:04:19.166Z,100120.59
2022-11-14T14:07:32.756Z,100112.81
2022-11-14T14:10:25.023Z,100117.13
2022-11-14T14:13:44.597Z,100125.41
2022-11-14T14:16:49.989Z,100122.84
2022-11-14T14:19:56.647Z,100126.63
2022-11-14T14:22:47.552Z,100127.34
2022-11-14T14:26:08.595Z,100120.75
2022-11-14T14:28:57.552Z,100126.00
2022-11-14T14:31:44.158Z,100117.66
2022-11-14T14:34:34.336Z,100120.13
2022-11-14T14:37:22.878Z,100123.09
2022-11-14T14:40:24.759Z,100116.28
2022-11-14T14:43:32.716Z,100123.00
2022-11-14T14:46:33.465Z,100115.94
2022-11-14T14:49:36.246Z,100110.59
2022-11-14T14:52:37.774Z,100111.56
2022-11-14T14:55:29.155Z,100108.03
2022-11-14T14:58:22.735Z,100103.78
2022-11-14T15:01:35.720Z,100101.75
2022-11-14T15:04:25.516Z,100106.72
2022-11-14T15:07:23.970Z,100097.19
2022-11-14T15:10:22.215Z,100107.69
2022-11-14T15:13:15.666Z,100113.13
2022-11-14T15:16:04.231Z,100107.13
2022-11-14T15:18:52.555Z,100113.81
2022-11-14T15:21:38.745Z,100110.22
2022-11-14T15:24:24.836Z,100111.72
2022-11-14T15:27:13.677Z,100103.38
2022-11-14T15:30:02.857Z,100113.31
2022-11-14T15:32:51.281Z,100109.34
2022-11-14T15:35:40.449Z,100110.50
2022-11-14T15:38:43.547Z,100099.53
2022-11-14T15:41:31.990Z,100104.31
2022-11-14T15:44:35.746Z,100110.94
2022-11-14T15:47:28.914Z,100104.72
2022-11-14T15:50:14.884Z,100108.00
2022-11-14T15:53:05.993Z,100100.53
2022-11-14T15:55:52.378Z,100102.78
2022-11-14T15:58:38.054Z,100106.59
2022-11-14T16:01:26.313Z,100109.88
2022-11-14T16:04:17.394Z,100098.84
2022-11-14T16:07:04.117Z,100094.63
2022-11-14T16:09:49.873Z,100098.84
2022-11-14T16:12:35.968Z,100100.34
2022-11-14T16:15:22.259Z,100092.31
2022-11-14T16:18:08.134Z,100094.53
2022-11-14T16:20:58.753Z,100098.75
2022-11-14T16:23:44.435Z,100089.69
2022-11-14T16:26:30.422Z,100087.69
2022-11-14T16:29:16.733Z,100097.94
2022-11-14T16:32:03.183Z,100101.63
2022-11-14T16:34:49.201Z,100096.13
2022-11-14T16:37:35.050Z,100098.94
2022-11-14T16:40:25.643Z,100099.19
2022-11-14T16:43:14.078Z,100103.72
2022-11-14T16:46:04.611Z,100096.78
2022-11-14T16:48:50.511Z,100102.06
2022-11-14T16:51:52.244Z,100092.03
2022-11-14T16:54:41.061Z,100093.81
2022-11-14T16:57:26.828Z,100081.81
2022-11-14T17:00:13.064Z,100088.81
2022-11-14T17:02:59.569Z,100088.59
2022-11-14T17:05:47.897Z,100082.56
2022-11-14T17:08:34.308Z,100076.81
2022-11-14T17:11:20.148Z,100088.59
2022-11-14T17:14:06.072Z,100091.09
2022-11-14T17:16:54.567Z,100078.84
2022-11-14T17:19:46.328Z,100078.78
2022-11-14T17:22:32.065Z,100078.47
2022-11-14T17:25:18.510Z,100075.22
2022-11-14T17:28:04.226Z,100070.94
2022-11-14T17:30:50.114Z,100066.41
2022-11-14T17:33:39.784Z,100067.63
2022-11-14T17:36:28.532Z,100068.84
2022-11-14T17:39:14.719Z,100070.59
2022-11-14T17:42:01.324Z,100069.28
2022-11-14T17:44:47.938Z,100065.22
2022-11-14T17:47:35.485Z,100071.66
2022-11-14T17:50:21.623Z,100071.38
2022-11-14T17:53:08.163Z,100065.06
2022-11-14T17:55:57.538Z,100063.28
2022-11-14T17:58:44.596Z,100046.97
2022-11-14T18:01:32.046Z,100054.69
2022-11-14T18:04:21.724Z,100039.69
2022-11-14T18:07:08.733Z,100017.84
2022-11-14T18:09:55.426Z,100024.28
2022-11-14T18:12:42.205Z,100032.25
2022-11-14T18:15:29.174Z,100036.25
2022-11-14T18:18:15.728Z,100026.53
2022-11-14T18:21:18.176Z,100023.03
2022-11-14T18:24:05.208Z,100032.25
2022-11-14T18:26:52.018Z,100034.53
2022-11-14T18:29:39.601Z,100025.25
2022-11-14T18:32:29.815Z,100034.31
2022-11-14T18:35:16.971Z,100035.56
2022-11-14T18:38:03.899Z,100033.44
2022-11-14T18:40:55.863Z,100024.66
2022-11-14T18:43:58.289Z,100030.84
2022-11-14T18:46:46.217Z,100037.56
2022-11-14T18:49:32.960Z,100038.63
2022-11-14T18:52:21.816Z,100039.59
2022-11-14T18:55:09.284Z,100036.09
2022-11-14T18:57:56.071Z,100033.66
2022-11-14T19:00:46.448Z,100025.91
2022-11-14T19:03:33.570Z,100033.13
2022-11-14T19:06:20.656Z,100025.13
2022-11-14T19:09:12.019Z,100014.91
2022-11-14T19:12:18.261Z,100013.44
2022-11-14T19:15:05.378Z,100015.41
2022-11-14T19:17:54.176Z,100012.63
2022-11-14T19:20:40.923Z,100016.38
2022-11-14T19:23:29.460Z,100019.91
2022-11-14T19:26:16.997Z,100022.59
2022-11-14T19:29:14.429Z,100027.41
2022-11-14T19:32:04.231Z,100024.16
2022-11-14T19:34:52.240Z,100017.44
2022-11-14T19:37:39.309Z,100010.63
2022-11-14T19:40:26.877Z,100000.59
2022-11-14T19:43:13.676Z,99999.38
2022-11-14T19:46:04.704Z,100000.22
2022-11-14T19:48:56.424Z,100007.97
2022-11-14T19:51:46.767Z,99999.22
2022-11-14T19:54:35.718Z,99993.50
2022-11-14T19:57:25.078Z,99992.78
2022-11-14T20:00:12.468Z,99991.06
2022-11-14T20:02:59.884Z,99989.81
2022-11-14T20:05:46.420Z,99991.13
2022-11-14T20:08:33.424Z,99986.56
2022-11-14T20:11:21.152Z,99982.38
2022-11-14T20:14:10.416Z,99981.63
2022-11-14T20:16:56.935Z,99991.38
2022-11-14T20:19:44.625Z,99980.63
2022-11-14T20:22:31.269Z,99987.66
2022-11-14T20:25:20.788Z,99987.13
2022-11-14T20:28:13.543Z,99995.59
2022-11-14T20:31:05.149Z,99979.56
2022-11-14T20:33:54.821Z,99973.09
2022-11-14T20:37:09.290Z,99969.09
2022-11-14T20:39:48.316Z,99969.31
2022-11-14T20:42:36.328Z,99975.56
2022-11-14T20:45:23.607Z,99965.75
2022-11-14T20:48:10.792Z,99968.50
2022-11-14T20:51:08.612Z,99960.78
2022-11-14T20:53:55.822Z,99957.78
2022-11-14T20:56:42.713Z,99962.03
2022-11-14T20:59:29.881Z,99955.94
2022-11-14T21:02:17.465Z,99950.22
2022-11-14T21:05:03.991Z,99946.94
2022-11-14T21:07:50.344Z,99945.72
2022-11-14T21:10:47.211Z,99926.72
2022-11-14T21:13:56.340Z,99936.69
2022-11-14T21:16:42.636Z,99933.16
2022-11-14T21:19:31.479Z,99933.16
2022-11-14T21:22:18.269Z,99931.69
2022-11-14T21:25:04.978Z,99928.88
2022-11-14T21:27:50.966Z,99921.59
2022-11-14T21:30:36.527Z,99921.84
2022-11-14T21:33:27.010Z,99918.63
2022-11-14T21:36:43.283Z,99920.13
2022-11-14T21:39:20.414Z,99919.59
2022-11-14T21:42:06.070Z,99921.81
2022-11-14T21:44:54.251Z,99925.81
2022-11-14T21:47:41.980Z,99922.06
2022-11-14T21:50:27.507Z,99933.06
2022-11-14T21:53:16.242Z,99941.81
2022-11-14T21:56:09.456Z,99928.06
2022-11-14T21:59:14.584Z,99929.38
2022-11-14T22:02:19.430Z,99921.09
2022-11-14T22:05:04.935Z,99910.63
2022-11-14T22:07:50.880Z,99915.38
2022-11-14T22:10:36.160Z,99920.13
2022-11-14T22:13:22.047Z,99923.16
2022-11-14T22:16:09.014Z,99923.41
2022-11-14T22:19:00.436Z,99916.16
2022-11-14T22:21:50.699Z,99917.69
2022-11-14T22:24:36.488Z,99916.13
2022-11-14T22:27:22.199Z,99916.88
2022-11-14T22:30:08.662Z,99921.09
2022-11-14T22:32:54.082Z,99913.13
2022-11-14T22:35:39.748Z,99921.63
2022-11-14T22:38:30.312Z,99914.13
2022-11-14T22:41:37.249Z,99905.59
2022-11-14T22:44:23.036Z,99910.16
2022-11-14T22:47:09.022Z,99916.16
2022-11-14T22:49:54.496Z,99906.19
2022-11-14T22:52:40.162Z,99907.91
2022-11-14T22:55:26.114Z,99907.41
2022-11-14T22:58:11.639Z,99905.09
2022-11-14T23:00:57.311Z,99903.38
2022-11-14T23:03:42.970Z,99894.91
2022-11-14T23:06:30.548Z,99899.16
2022-11-14T23:09:16.126Z,99906.41
2022-11-14T23:12:03.837Z,99900.41
2022-11-14T23:14:50.044Z,99897.44
2022-11-14T23:17:35.698Z,99888.16
2022-11-14T23:20:21.817Z,99890.66
2022-11-14T23:23:07.390Z,99897.66
2022-11-14T23:25:53.680Z,99891.66
2022-11-14T23:28:41.516Z,99883.19
2022-11-14T23:31:27.578Z,99886.97
2022-11-14T23:34:15.684Z,99878.72
2022-11-14T23:37:01.318Z,99866.66
2022-11-14T23:39:47.133Z,99872.16
2022-11-14T23:42:35.092Z,99869.41
2022-11-14T23:45:20.873Z,99861.69
2022-11-14T23:48:06.544Z,99867.72
2022-11-14T23:50:54.507Z,99861.69
2022-11-14T23:53:41.015Z,99859.94
2022-11-14T23:56:26.775Z,99862.47
2022-11-14T23:59:12.523Z,99867.72
